Time;durP1;ratioP1;P1;durP2;ratioP2;P2;SDS_P1;SDS_P2;PMS_P1;PMS_P2;Temp;Humidity;BMP_temperature;BMP_pressure;BME280_temperature;BME280_humidity;BME280_pressure;Samples;Min_cycle;Max_cycle;Signal;HPM_P1;HPM_P2
2023/05/26 00:01:52;;;;;;;7.23;4.90;;;;;;;;;;6074419;23;20394;-89
2023/05/26 00:04:18;;;;;;;5.83;4.70;;;;;;;;;;6048448;23;20410;-89
2023/05/26 00:06:52;;;;;;;7.97;5.53;;;;;;;;;;6048094;23;20489;-89
2023/05/26 00:09:19;;;;;;;10.50;4.10;;;;;;;;;;6047441;23;20862;-89
2023/05/26 00:11:45;;;;;;;9.13;5.37;;;;;;;;;;6047380;23;20386;-89
2023/05/26 00:14:14;;;;;;;6.53;5.10;;;;;;;;;;6046511;23;20394;-89
2023/05/26 00:16:40;;;;;;;6.00;4.17;;;;;;;;;;6049933;23;20391;-89
2023/05/26 00:19:07;;;;;;;6.20;4.60;;;;;;;;;;6046697;23;20398;-89
2023/05/26 00:21:35;;;;;;;5.60;4.80;;;;;;;;;;6048762;23;20425;-89
2023/05/26 00:24:01;;;;;;;6.73;5.00;;;;;;;;;;6020912;23;20817;-89
2023/05/26 00:26:27;;;;;;;7.70;5.07;;;;;;;;;;6019572;23;20386;-89
2023/05/26 00:28:53;;;;;;;7.63;4.90;;;;;;;;;;6017813;23;20448;-90
2023/05/26 00:31:19;;;;;;;12.80;5.33;;;;;;;;;;6018668;23;20388;-90
2023/05/26 00:33:45;;;;;;;10.03;4.97;;;;;;;;;;6071624;23;20426;-90
2023/05/26 00:36:11;;;;;;;7.17;5.30;;;;;;;;;;6081744;23;20389;-89
2023/05/26 00:38:37;;;;;;;12.33;5.57;;;;;;;;;;6080024;23;20389;-90
2023/05/26 00:41:03;;;;;;;11.90;4.73;;;;;;;;;;6078828;23;20392;-89
2023/05/26 00:43:29;;;;;;;6.77;4.87;;;;;;;;;;6078404;23;20590;-90
2023/05/26 00:45:55;;;;;;;9.00;5.50;;;;;;;;;;6104669;23;20846;-89
2023/05/26 00:48:21;;;;;;;12.43;5.60;;;;;;;;;;6078300;23;20402;-89
2023/05/26 00:50:47;;;;;;;5.83;4.47;;;;;;;;;;6079128;23;21048;-90
2023/05/26 00:53:13;;;;;;;5.10;4.27;;;;;;;;;;6099880;23;20370;-89
2023/05/26 00:55:40;;;;;;;5.40;4.00;;;;;;;;;;6078418;23;20378;-89
2023/05/26 00:58:06;;;;;;;8.43;4.97;;;;;;;;;;6078715;23;20706;-90
2023/05/26 01:00:32;;;;;;;6.07;4.70;;;;;;;;;;6081746;23;20469;-90
2023/05/26 01:02:58;;;;;;;7.70;4.73;;;;;;;;;;6079417;23;20537;-90
2023/05/26 01:05:25;;;;;;;7.17;4.70;;;;;;;;;;6078057;23;20382;-90
2023/05/26 01:07:51;;;;;;;6.73;4.93;;;;;;;;;;6077532;23;20374;-89
2023/05/26 01:10:17;;;;;;;9.97;5.30;;;;;;;;;;6079533;23;21274;-90
2023/05/26 01:13:09;;;;;;;10.80;4.80;;;;;;;;;;6077414;23;20546;-90
2023/05/26 01:15:42;;;;;;;6.83;4.57;;;;;;;;;;6124757;23;20400;-90
2023/05/26 01:18:08;;;;;;;6.07;4.73;;;;;;;;;;6078752;23;20378;-90
2023/05/26 01:20:38;;;;;;;5.90;4.40;;;;;;;;;;6103038;23;20382;-90
2023/05/26 01:23:07;;;;;;;7.97;5.40;;;;;;;;;;6102230;23;20433;-89
2023/05/26 01:25:36;;;;;;;5.43;4.87;;;;;;;;;;6102229;23;20377;-90
2023/05/26 01:28:14;;;;;;;7.10;4.77;;;;;;;;;;6099006;23;20378;-90
2023/05/26 01:30:40;;;;;;;8.00;5.03;;;;;;;;;;6100599;23;20388;-90
2023/05/26 01:33:06;;;;;;;8.27;4.30;;;;;;;;;;6074865;23;20772;-89
2023/05/26 01:35:32;;;;;;;5.23;4.43;;;;;;;;;;6077501;23;20389;-90
2023/05/26 01:37:58;;;;;;;8.23;4.83;;;;;;;;;;6079022;23;20476;-89
2023/05/26 01:40:24;;;;;;;4.83;3.90;;;;;;;;;;6078325;23;20386;-90
2023/05/26 01:43:16;;;;;;;5.83;4.67;;;;;;;;;;6078200;23;20453;-90
2023/05/26 01:45:44;;;;;;;8.60;5.00;;;;;;;;;;6097615;23;20382;-90
2023/05/26 01:48:10;;;;;;;10.77;4.50;;;;;;;;;;6101782;23;20390;-90
2023/05/26 01:50:45;;;;;;;6.20;4.57;;;;;;;;;;6079498;23;20436;-90
2023/05/26 01:53:12;;;;;;;5.93;4.37;;;;;;;;;;6076891;23;20404;-90
2023/05/26 01:55:38;;;;;;;6.60;3.47;;;;;;;;;;6078277;23;20390;-90
2023/05/26 01:58:04;;;;;;;7.20;4.93;;;;;;;;;;6103255;23;20378;-90
2023/05/26 02:00:30;;;;;;;5.90;4.20;;;;;;;;;;6080838;23;21086;-90
2023/05/26 02:02:56;;;;;;;10.70;5.53;;;;;;;;;;6081249;23;20428;-90
2023/05/26 02:05:22;;;;;;;8.63;5.50;;;;;;;;;;6080164;23;20625;-90
2023/05/26 02:07:50;;;;;;;7.27;4.60;;;;;;;;;;6078639;23;20384;-90
2023/05/26 02:10:16;;;;;;;6.83;4.60;;;;;;;;;;6102865;23;20362;-90
2023/05/26 02:12:42;;;;;;;7.67;4.77;;;;;;;;;;6103356;23;20401;-88
2023/05/26 02:15:08;;;;;;;5.43;4.67;;;;;;;;;;6079407;23;20385;-89
2023/05/26 02:17:34;;;;;;;8.67;5.50;;;;;;;;;;6081599;23;20472;-90
2023/05/26 02:20:02;;;;;;;5.50;4.10;;;;;;;;;;6079327;23;20385;-90
2023/05/26 02:22:28;;;;;;;9.70;5.20;;;;;;;;;;6080082;23;20385;-90
2023/05/26 02:24:54;;;;;;;7.40;4.90;;;;;;;;;;6080618;23;20826;-90
2023/05/26 02:27:20;;;;;;;6.87;5.07;;;;;;;;;;6080049;23;20461;-91
2023/05/26 02:29:46;;;;;;;7.37;4.60;;;;;;;;;;6077477;23;20374;-90
2023/05/26 02:32:12;;;;;;;5.80;4.47;;;;;;;;;;6081049;23;20375;-90
2023/05/26 02:34:38;;;;;;;6.47;4.93;;;;;;;;;;6076810;23;20469;-90
2023/05/26 02:37:04;;;;;;;7.70;4.70;;;;;;;;;;6081130;23;20722;-90
2023/05/26 02:39:30;;;;;;;5.03;4.10;;;;;;;;;;6080659;23;20416;-90
2023/05/26 02:41:56;;;;;;;7.93;5.10;;;;;;;;;;6081198;23;20822;-90
2023/05/26 02:44:24;;;;;;;10.33;5.13;;;;;;;;;;6103862;23;20433;-90
2023/05/26 02:46:50;;;;;;;9.53;5.60;;;;;;;;;;6081492;23;20388;-90
2023/05/26 02:49:16;;;;;;;10.20;4.10;;;;;;;;;;6080655;23;20406;-90
2023/05/26 02:51:42;;;;;;;11.40;4.60;;;;;;;;;;6081237;23;20382;-90
2023/05/26 02:54:08;;;;;;;8.70;4.60;;;;;;;;;;6104304;23;20792;-90
2023/05/26 02:56:34;;;;;;;6.33;4.73;;;;;;;;;;6081035;23;20382;-90
2023/05/26 02:59:00;;;;;;;6.97;4.60;;;;;;;;;;6079528;23;20426;-90
2023/05/26 03:01:27;;;;;;;6.20;4.70;;;;;;;;;;6080240;23;20393;-89
2023/05/26 03:03:53;;;;;;;7.60;4.67;;;;;;;;;;6079041;23;20428;-90
2023/05/26 03:06:19;;;;;;;9.20;5.53;;;;;;;;;;6080050;23;20701;-90
2023/05/26 03:08:45;;;;;;;9.03;5.40;;;;;;;;;;6080610;23;20441;-90
2023/05/26 03:11:11;;;;;;;7.80;4.30;;;;;;;;;;6080567;23;20370;-90
2023/05/26 03:13:39;;;;;;;5.93;4.20;;;;;;;;;;6077746;23;20402;-90
2023/05/26 03:16:05;;;;;;;6.70;4.60;;;;;;;;;;6079959;23;20390;-88
2023/05/26 03:18:32;;;;;;;7.40;4.50;;;;;;;;;;6079499;23;20480;-90
2023/05/26 03:20:58;;;;;;;8.80;5.50;;;;;;;;;;6079126;23;20389;-90
2023/05/26 03:23:24;;;;;;;7.90;5.00;;;;;;;;;;6080711;23;20457;-89
2023/05/26 03:25:50;;;;;;;10.20;4.47;;;;;;;;;;6081142;23;20377;-90
2023/05/26 03:28:16;;;;;;;8.77;4.70;;;;;;;;;;6080050;23;20413;-91
2023/05/26 03:30:42;;;;;;;11.23;5.20;;;;;;;;;;6079303;23;21114;-88
2023/05/26 03:33:08;;;;;;;10.33;4.90;;;;;;;;;;6079893;23;20484;-90
2023/05/26 03:35:35;;;;;;;8.53;5.10;;;;;;;;;;6082249;23;20385;-90
2023/05/26 03:38:01;;;;;;;7.27;5.30;;;;;;;;;;6080644;23;20392;-90
2023/05/26 03:40:27;;;;;;;6.60;4.60;;;;;;;;;;6084392;23;20409;-90
2023/05/26 03:42:53;;;;;;;6.03;4.37;;;;;;;;;;6079561;23;20777;-90
2023/05/26 03:45:22;;;;;;;7.57;4.87;;;;;;;;;;6080139;23;20385;-90
2023/05/26 03:47:48;;;;;;;9.57;5.70;;;;;;;;;;6079797;23;20377;-90
2023/05/26 03:50:14;;;;;;;11.17;5.13;;;;;;;;;;6080429;23;20884;-90
2023/05/26 03:52:40;;;;;;;8.93;4.97;;;;;;;;;;6078892;23;20429;-89
2023/05/26 03:55:10;;;;;;;7.70;4.97;;;;;;;;;;6089689;23;20399;-96
2023/05/26 03:57:37;;;;;;;10.57;5.57;;;;;;;;;;6110693;23;20402;-96
2023/05/26 04:00:04;;;;;;;6.53;5.00;;;;;;;;;;6087462;23;20366;-94
2023/05/26 04:02:30;;;;;;;6.93;5.27;;;;;;;;;;6086594;23;20381;-93
2023/05/26 04:04:56;;;;;;;9.30;5.90;;;;;;;;;;6088580;23;20514;-96
2023/05/26 04:07:22;;;;;;;6.00;4.80;;;;;;;;;;6086659;23;20386;-96
2023/05/26 04:09:48;;;;;;;8.73;4.50;;;;;;;;;;6090785;23;20405;-95
2023/05/26 04:12:14;;;;;;;7.07;5.40;;;;;;;;;;6078736;23;21086;-90
2023/05/26 04:14:40;;;;;;;12.10;4.70;;;;;;;;;;6083337;23;20436;-91
2023/05/26 04:17:07;;;;;;;7.23;5.00;;;;;;;;;;6108478;23;20369;-91
2023/05/26 04:19:33;;;;;;;6.90;4.67;;;;;;;;;;6083929;23;20378;-88
2023/05/26 04:21:59;;;;;;;9.67;6.27;;;;;;;;;;6084547;23;20401;-90
2023/05/26 04:24:26;;;;;;;9.00;5.10;;;;;;;;;;6111726;23;20427;-88
2023/05/26 04:26:52;;;;;;;13.23;6.50;;;;;;;;;;6112818;23;20431;-90
2023/05/26 04:29:20;;;;;;;10.63;5.70;;;;;;;;;;6133585;23;20365;-90
2023/05/26 04:31:46;;;;;;;7.77;5.60;;;;;;;;;;6110832;23;20377;-88
2023/05/26 04:34:12;;;;;;;9.70;6.57;;;;;;;;;;6108270;23;21031;-90
2023/05/26 04:36:38;;;;;;;13.10;5.40;;;;;;;;;;6112165;23;20770;-90
2023/05/26 04:39:04;;;;;;;9.13;5.70;;;;;;;;;;6110551;23;20387;-90
2023/05/26 04:41:32;;;;;;;12.93;7.47;;;;;;;;;;6109306;23;20381;-90
2023/05/26 04:43:58;;;;;;;7.70;5.20;;;;;;;;;;6113025;23;20421;-90
2023/05/26 04:46:24;;;;;;;8.33;5.47;;;;;;;;;;6111291;23;20408;-90
2023/05/26 04:48:52;;;;;;;10.87;6.40;;;;;;;;;;6108515;23;20377;-88
2023/05/26 04:51:20;;;;;;;12.80;5.57;;;;;;;;;;6137938;23;20784;-90
2023/05/26 04:53:46;;;;;;;9.00;5.33;;;;;;;;;;6109787;23;20825;-90
2023/05/26 04:56:12;;;;;;;9.67;6.60;;;;;;;;;;6110822;23;20381;-86
2023/05/26 04:58:38;;;;;;;22.63;6.10;;;;;;;;;;6109563;23;20409;-88
2023/05/26 05:01:04;;;;;;;11.60;5.50;;;;;;;;;;6135184;23;20393;-88
2023/05/26 05:03:34;;;;;;;8.90;6.80;;;;;;;;;;6111921;23;20420;-90
2023/05/26 05:06:00;;;;;;;14.13;6.10;;;;;;;;;;6111328;23;20718;-89
2023/05/26 05:08:26;;;;;;;6.70;5.83;;;;;;;;;;6111789;23;20381;-89
2023/05/26 05:10:52;;;;;;;9.00;6.40;;;;;;;;;;6109861;23;21112;-89
2023/05/26 05:13:18;;;;;;;8.70;5.40;;;;;;;;;;6112925;23;20380;-89
2023/05/26 05:15:44;;;;;;;10.60;5.57;;;;;;;;;;6109151;23;20396;-88
2023/05/26 05:18:10;;;;;;;9.30;6.00;;;;;;;;;;6113972;23;20400;-87
2023/05/26 05:20:36;;;;;;;7.83;5.13;;;;;;;;;;6108276;23;20484;-88
2023/05/26 05:23:02;;;;;;;10.03;5.87;;;;;;;;;;6112267;23;20439;-88
2023/05/26 05:25:28;;;;;;;10.67;6.30;;;;;;;;;;6106468;23;20388;-88
2023/05/26 05:27:54;;;;;;;9.73;6.20;;;;;;;;;;6111132;23;20381;-90
2023/05/26 05:30:20;;;;;;;10.37;6.43;;;;;;;;;;6110935;23;20380;-90
2023/05/26 05:32:47;;;;;;;8.73;6.20;;;;;;;;;;6109674;23;20412;-90
2023/05/26 05:35:13;;;;;;;11.43;6.53;;;;;;;;;;6108384;23;20408;-90
2023/05/26 05:37:39;;;;;;;13.80;7.17;;;;;;;;;;6110325;23;20384;-89
2023/05/26 05:40:05;;;;;;;8.57;5.63;;;;;;;;;;6107934;23;20385;-88
2023/05/26 05:42:31;;;;;;;11.30;7.23;;;;;;;;;;6109259;23;20385;-88
2023/05/26 05:44:57;;;;;;;8.60;6.23;;;;;;;;;;6112922;23;20427;-90
2023/05/26 05:47:23;;;;;;;8.23;6.40;;;;;;;;;;6115669;23;20444;-89
2023/05/26 05:49:49;;;;;;;9.93;6.40;;;;;;;;;;6114536;23;20384;-89
2023/05/26 05:52:15;;;;;;;13.97;7.17;;;;;;;;;;6107836;23;20372;-89
2023/05/26 05:54:41;;;;;;;10.37;7.20;;;;;;;;;;6109747;23;20402;-90
2023/05/26 05:57:10;;;;;;;10.00;7.33;;;;;;;;;;6135239;23;20377;-89
2023/05/26 05:59:36;;;;;;;13.47;7.00;;;;;;;;;;6114206;23;20412;-89
2023/05/26 06:02:02;;;;;;;12.03;5.93;;;;;;;;;;6109650;23;20697;-89
2023/05/26 06:04:28;;;;;;;11.03;6.20;;;;;;;;;;6110419;23;20448;-90
2023/05/26 06:06:54;;;;;;;10.67;6.10;;;;;;;;;;6108052;23;20697;-89
2023/05/26 06:09:21;;;;;;;10.77;5.77;;;;;;;;;;6111400;23;20439;-89
2023/05/26 06:11:47;;;;;;;11.70;7.30;;;;;;;;;;6108703;23;20856;-89
2023/05/26 06:14:13;;;;;;;14.23;5.83;;;;;;;;;;6108529;23;20396;-88
2023/05/26 06:16:57;;;;;;;7.60;6.33;;;;;;;;;;6109371;23;20385;-90
2023/05/26 06:19:24;;;;;;;13.17;7.27;;;;;;;;;;6110554;23;20394;-88
2023/05/26 06:21:50;;;;;;;10.67;6.43;;;;;;;;;;6107895;23;20452;-89
2023/05/26 06:24:17;;;;;;;11.17;6.97;;;;;;;;;;6113982;23;20463;-88
2023/05/26 06:26:43;;;;;;;13.40;7.20;;;;;;;;;;6132232;23;20382;-90
2023/05/26 06:29:09;;;;;;;9.60;7.27;;;;;;;;;;6110038;23;20376;-89
2023/05/26 06:31:35;;;;;;;11.10;7.43;;;;;;;;;;6108410;23;20357;-88
2023/05/26 06:34:01;;;;;;;10.60;7.20;;;;;;;;;;6108389;23;20381;-89
2023/05/26 06:36:27;;;;;;;11.77;8.50;;;;;;;;;;6106660;23;20461;-87
2023/05/26 06:38:53;;;;;;;13.23;7.33;;;;;;;;;;6110069;23;20385;-90
2023/05/26 06:41:19;;;;;;;11.33;7.53;;;;;;;;;;6132009;23;20947;-88
2023/05/26 06:43:45;;;;;;;10.43;7.33;;;;;;;;;;6108689;23;20432;-88
2023/05/26 06:46:11;;;;;;;11.60;7.07;;;;;;;;;;6132328;23;20365;-87
2023/05/26 06:48:37;;;;;;;12.30;7.93;;;;;;;;;;6106058;23;20373;-88
2023/05/26 06:51:03;;;;;;;9.93;7.30;;;;;;;;;;6131374;23;20366;-88
2023/05/26 06:53:30;;;;;;;10.80;7.37;;;;;;;;;;6107613;23;20381;-88
2023/05/26 06:55:56;;;;;;;19.27;7.27;;;;;;;;;;6112362;23;20389;-88
2023/05/26 06:58:22;;;;;;;10.90;7.43;;;;;;;;;;6107545;23;20481;-89
2023/05/26 07:01:00;;;;;;;11.10;7.70;;;;;;;;;;6110325;23;20389;-89
2023/05/26 07:03:27;;;;;;;11.40;6.57;;;;;;;;;;6107184;23;21243;-88
2023/05/26 07:05:53;;;;;;;12.40;8.00;;;;;;;;;;6111117;23;20776;-87
2023/05/26 07:08:19;;;;;;;11.63;7.60;;;;;;;;;;6109590;23;20392;-89
2023/05/26 07:10:45;;;;;;;14.37;7.80;;;;;;;;;;6111908;23;20381;-89
2023/05/26 07:13:11;;;;;;;9.37;6.67;;;;;;;;;;6134790;23;20484;-90
2023/05/26 07:15:37;;;;;;;10.93;6.87;;;;;;;;;;6112902;23;20381;-86
2023/05/26 07:18:03;;;;;;;17.30;8.43;;;;;;;;;;6109084;23;20895;-89
2023/05/26 07:20:29;;;;;;;12.97;8.10;;;;;;;;;;6109179;23;20381;-89
2023/05/26 07:22:55;;;;;;;19.13;8.80;;;;;;;;;;6106818;23;20440;-89
2023/05/26 07:25:21;;;;;;;8.87;7.47;;;;;;;;;;6110713;23;20389;-89
2023/05/26 07:27:47;;;;;;;12.10;7.30;;;;;;;;;;6104453;23;21182;-88
2023/05/26 07:30:13;;;;;;;10.33;6.70;;;;;;;;;;6110700;23;20388;-87
2023/05/26 07:32:39;;;;;;;13.97;7.40;;;;;;;;;;6108196;23;20377;-90
2023/05/26 07:35:06;;;;;;;13.53;7.40;;;;;;;;;;6107469;23;20389;-88
2023/05/26 07:37:32;;;;;;;11.97;6.70;;;;;;;;;;6110864;23;20422;-88
2023/05/26 07:39:58;;;;;;;12.80;6.57;;;;;;;;;;6110621;23;20381;-88
2023/05/26 07:42:24;;;;;;;11.93;8.33;;;;;;;;;;6112474;23;20870;-89
2023/05/26 07:44:50;;;;;;;12.63;6.70;;;;;;;;;;6108775;23;20420;-87
2023/05/26 07:47:16;;;;;;;10.40;7.70;;;;;;;;;;6115263;23;20408;-87
2023/05/26 07:49:42;;;;;;;11.20;7.00;;;;;;;;;;6112020;23;20464;-87
2023/05/26 07:52:08;;;;;;;8.37;6.97;;;;;;;;;;6113674;23;20514;-87
2023/05/26 07:54:34;;;;;;;9.00;6.33;;;;;;;;;;6137873;23;20459;-86
2023/05/26 07:57:02;;;;;;;9.47;6.27;;;;;;;;;;6108793;23;20468;-87
2023/05/26 07:59:28;;;;;;;10.40;7.50;;;;;;;;;;6115512;23;20376;-86
2023/05/26 08:01:54;;;;;;;9.37;6.70;;;;;;;;;;6110196;23;20373;-88
2023/05/26 08:04:20;;;;;;;13.33;6.97;;;;;;;;;;6113383;23;20420;-89
2023/05/26 08:06:46;;;;;;;7.37;6.67;;;;;;;;;;6111731;23;20448;-90
2023/05/26 08:09:12;;;;;;;10.20;7.23;;;;;;;;;;6111041;23;20381;-88
2023/05/26 08:11:38;;;;;;;11.70;7.77;;;;;;;;;;6108364;23;20896;-87
2023/05/26 08:14:04;;;;;;;10.37;6.80;;;;;;;;;;6112343;23;20447;-88
2023/05/26 08:16:32;;;;;;;20.50;7.80;;;;;;;;;;6108655;23;20753;-93
2023/05/26 08:18:58;;;;;;;11.90;6.87;;;;;;;;;;6114017;23;20376;-89
2023/05/26 08:21:25;;;;;;;9.80;7.20;;;;;;;;;;6110768;23;20413;-90
2023/05/26 08:23:51;;;;;;;13.57;6.80;;;;;;;;;;6111090;23;20439;-89
2023/05/26 08:26:17;;;;;;;10.50;7.10;;;;;;;;;;6111688;23;20377;-89
2023/05/26 08:28:43;;;;;;;9.63;6.70;;;;;;;;;;6136665;23;20399;-88
2023/05/26 08:31:09;;;;;;;11.00;6.90;;;;;;;;;;6110780;23;20384;-88
2023/05/26 08:33:35;;;;;;;17.80;7.53;;;;;;;;;;6108374;23;20381;-89
2023/05/26 08:36:01;;;;;;;12.63;7.00;;;;;;;;;;6108739;23;20983;-89
2023/05/26 08:38:29;;;;;;;11.03;7.37;;;;;;;;;;6111718;23;20377;-89
2023/05/26 08:40:56;;;;;;;11.67;7.60;;;;;;;;;;6110439;23;20460;-88
2023/05/26 08:43:23;;;;;;;15.37;7.90;;;;;;;;;;6109949;23;21027;-87
2023/05/26 08:45:55;;;;;;;14.90;8.40;;;;;;;;;;6134702;23;20675;-87
2023/05/26 08:48:21;;;;;;;11.00;6.97;;;;;;;;;;6113016;23;20377;-87
2023/05/26 08:50:47;;;;;;;13.60;8.27;;;;;;;;;;6110084;23;20364;-86
2023/05/26 08:53:13;;;;;;;9.30;6.37;;;;;;;;;;6135471;23;20365;-88
2023/05/26 08:55:39;;;;;;;10.33;7.50;;;;;;;;;;6109248;23;20830;-87
2023/05/26 08:58:05;;;;;;;13.17;6.53;;;;;;;;;;6112045;23;20440;-88
2023/05/26 09:00:32;;;;;;;12.53;7.10;;;;;;;;;;6107433;23;20389;-87
2023/05/26 09:03:01;;;;;;;10.77;6.57;;;;;;;;;;6111478;23;20478;-87
2023/05/26 09:05:27;;;;;;;15.93;7.13;;;;;;;;;;6110090;23;20899;-87
2023/05/26 09:07:53;;;;;;;9.33;6.10;;;;;;;;;;6116274;23;20405;-87
2023/05/26 09:10:23;;;;;;;13.70;6.37;;;;;;;;;;6136980;23;20369;-88
2023/05/26 09:12:49;;;;;;;10.93;7.20;;;;;;;;;;6110240;23;20385;-86
2023/05/26 09:15:20;;;;;;;8.80;6.70;;;;;;;;;;6108662;23;20467;-87
2023/05/26 09:17:46;;;;;;;9.30;6.40;;;;;;;;;;6109330;23;20384;-87
2023/05/26 09:20:12;;;;;;;8.33;6.80;;;;;;;;;;6133392;23;20872;-87
2023/05/26 09:22:38;;;;;;;12.90;8.10;;;;;;;;;;6110050;23;20436;-87
2023/05/26 09:25:04;;;;;;;9.63;7.20;;;;;;;;;;6109568;23;20381;-87
2023/05/26 09:27:30;;;;;;;12.53;7.03;;;;;;;;;;6111502;23;20373;-87
2023/05/26 09:30:00;;;;;;;14.20;7.30;;;;;;;;;;6110367;23;21098;-87
2023/05/26 09:32:32;;;;;;;11.70;7.37;;;;;;;;;;6134215;23;20385;-85
2023/05/26 09:35:00;;;;;;;10.50;7.30;;;;;;;;;;6112253;23;20409;-87
2023/05/26 09:37:29;;;;;;;12.23;7.60;;;;;;;;;;6108379;23;20373;-88
2023/05/26 09:40:18;;;;;;;15.90;8.70;;;;;;;;;;6112286;23;20881;-90
2023/05/26 09:42:48;;;;;;;9.73;6.50;;;;;;;;;;6136869;23;20373;-90
2023/05/26 09:45:16;;;;;;;12.60;6.73;;;;;;;;;;6114292;23;20404;-92
2023/05/26 09:47:42;;;;;;;9.03;7.50;;;;;;;;;;6117011;23;20444;-93
2023/05/26 09:50:08;;;;;;;14.03;7.67;;;;;;;;;;6117405;23;20443;-93
2023/05/26 09:52:34;;;;;;;9.07;7.10;;;;;;;;;;6114197;23;21255;-93
2023/05/26 09:55:00;;;;;;;9.70;6.53;;;;;;;;;;6116443;23;20385;-92
2023/05/26 09:57:27;;;;;;;10.97;8.00;;;;;;;;;;6114832;23;20448;-92
2023/05/26 09:59:54;;;;;;;10.83;7.80;;;;;;;;;;6116214;23;20440;-93
2023/05/26 10:02:21;;;;;;;8.10;6.20;;;;;;;;;;6115350;23;20401;-92
2023/05/26 10:04:49;;;;;;;13.10;8.30;;;;;;;;;;6116565;23;20417;-86
2023/05/26 10:07:22;;;;;;;14.20;7.60;;;;;;;;;;6108823;23;20440;-88
2023/05/26 10:10:01;;;;;;;12.83;7.77;;;;;;;;;;6111108;23;20385;-88
2023/05/26 10:12:30;;;;;;;9.10;7.10;;;;;;;;;;6109846;23;20393;-87
2023/05/26 10:14:57;;;;;;;10.00;6.83;;;;;;;;;;6113039;23;20480;-89
2023/05/26 10:17:23;;;;;;;19.63;7.83;;;;;;;;;;6133995;23;20369;-88
2023/05/26 10:19:49;;;;;;;13.97;8.30;;;;;;;;;;6112779;23;20381;-90
2023/05/26 10:22:42;;;;;;;10.97;8.37;;;;;;;;;;6108896;23;20427;-89
2023/05/26 10:25:13;;;;;;;13.60;9.00;;;;;;;;;;6089004;23;20396;-88
2023/05/26 10:27:42;;;;;;;16.63;7.20;;;;;;;;;;6108468;23;20377;-89
2023/05/26 10:30:10;;;;;;;12.27;8.17;;;;;;;;;;6116199;23;20400;-89
2023/05/26 10:32:42;;;;;;;10.50;8.40;;;;;;;;;;6112634;23;20388;-92
2023/05/26 10:35:23;;;;;;;13.07;8.20;;;;;;;;;;6133672;23;20863;-87
2023/05/26 10:38:13;;;;;;;12.00;8.93;;;;;;;;;;6131479;23;20385;-87
2023/05/26 10:40:45;;;;;;;12.27;7.57;;;;;;;;;;6130307;23;20381;-88
2023/05/26 10:43:13;;;;;;;14.33;8.30;;;;;;;;;;6109963;23;20431;-87
2023/05/26 10:45:55;;;;;;;12.37;7.43;;;;;;;;;;6109444;23;20464;-89
2023/05/26 10:48:21;;;;;;;12.70;8.30;;;;;;;;;;6135033;23;20385;-88
2023/05/26 10:50:56;;;;;;;14.67;8.43;;;;;;;;;;6105956;23;20721;-86
2023/05/26 10:53:22;;;;;;;12.20;8.23;;;;;;;;;;6132234;23;20839;-86
2023/05/26 10:55:58;;;;;;;9.70;8.33;;;;;;;;;;6105110;23;20391;-88
2023/05/26 10:58:27;;;;;;;11.13;8.23;;;;;;;;;;6133798;23;20384;-88
2023/05/26 11:00:54;;;;;;;13.80;7.77;;;;;;;;;;6134264;23;20420;-87
2023/05/26 11:03:33;;;;;;;8.87;7.20;;;;;;;;;;6107302;23;20462;-88
2023/05/26 11:06:01;;;;;;;17.30;9.90;;;;;;;;;;6158897;23;20447;-87
2023/05/26 11:08:32;;;;;;;8.77;6.57;;;;;;;;;;6107729;23;20385;-87
2023/05/26 11:11:00;;;;;;;10.70;8.67;;;;;;;;;;6109773;23;20388;-89
2023/05/26 11:13:42;;;;;;;8.87;7.13;;;;;;;;;;6106177;23;20393;-88
2023/05/26 11:16:37;;;;;;;8.97;6.87;;;;;;;;;;6108065;23;20388;-87
2023/05/26 11:19:06;;;;;;;10.40;7.90;;;;;;;;;;6129878;23;20369;-87
2023/05/26 11:21:33;;;;;;;10.70;8.00;;;;;;;;;;6110327;23;20392;-86
2023/05/26 11:24:00;;;;;;;9.07;6.90;;;;;;;;;;6104500;23;20492;-87
2023/05/26 11:26:27;;;;;;;10.37;6.80;;;;;;;;;;6106548;23;20392;-88
2023/05/26 11:28:53;;;;;;;9.83;7.27;;;;;;;;;;6106314;23;20460;-88
2023/05/26 11:31:20;;;;;;;10.07;6.90;;;;;;;;;;6109583;23;20477;-86
2023/05/26 11:33:46;;;;;;;12.43;8.07;;;;;;;;;;6106083;23;20898;-86
2023/05/26 11:36:13;;;;;;;11.90;7.10;;;;;;;;;;6135923;23;20400;-86
2023/05/26 11:38:39;;;;;;;8.23;6.83;;;;;;;;;;6108222;23;20380;-85
2023/05/26 11:41:09;;;;;;;10.47;7.23;;;;;;;;;;6108672;23;20458;-88
2023/05/26 11:43:35;;;;;;;12.37;7.20;;;;;;;;;;6108740;23;20413;-87
2023/05/26 11:46:05;;;;;;;9.83;6.50;;;;;;;;;;6110319;23;20420;-87
2023/05/26 11:48:41;;;;;;;14.67;7.10;;;;;;;;;;6109020;23;20385;-86
2023/05/26 11:51:11;;;;;;;9.03;6.80;;;;;;;;;;6131838;23;20820;-86
2023/05/26 11:53:37;;;;;;;9.00;6.70;;;;;;;;;;6128885;23;21069;-88
2023/05/26 11:56:03;;;;;;;9.93;7.73;;;;;;;;;;6106731;23;20405;-85
2023/05/26 11:58:29;;;;;;;10.73;6.10;;;;;;;;;;6105445;23;20465;-85
2023/05/26 12:01:00;;;;;;;13.17;6.30;;;;;;;;;;6105868;23;20370;-85
2023/05/26 12:03:26;;;;;;;9.57;6.40;;;;;;;;;;6105799;23;20455;-85
2023/05/26 12:05:52;;;;;;;7.20;6.50;;;;;;;;;;6110222;23;20381;-85
2023/05/26 12:08:18;;;;;;;7.57;6.73;;;;;;;;;;6107792;23;21105;-86
2023/05/26 12:10:45;;;;;;;12.70;7.20;;;;;;;;;;6104200;23;20377;-85
2023/05/26 12:13:13;;;;;;;6.17;5.57;;;;;;;;;;6108708;23;20385;-85
2023/05/26 12:15:39;;;;;;;9.27;5.63;;;;;;;;;;6107449;23;20381;-85
2023/05/26 12:18:05;;;;;;;8.00;6.80;;;;;;;;;;6108422;23;20415;-84
2023/05/26 12:20:32;;;;;;;10.80;6.17;;;;;;;;;;6106491;23;20455;-85
2023/05/26 12:23:02;;;;;;;14.30;7.10;;;;;;;;;;6108703;23;20408;-85
2023/05/26 12:25:31;;;;;;;8.20;6.40;;;;;;;;;;6133954;23;20456;-85
2023/05/26 12:27:57;;;;;;;7.20;5.73;;;;;;;;;;6106330;23;20547;-86
2023/05/26 12:30:25;;;;;;;10.23;6.50;;;;;;;;;;6109586;23;20864;-85
2023/05/26 12:32:51;;;;;;;9.70;6.23;;;;;;;;;;6109177;23;20464;-86
2023/05/26 12:35:17;;;;;;;7.50;6.07;;;;;;;;;;6134340;23;20848;-85
2023/05/26 12:37:43;;;;;;;10.20;6.40;;;;;;;;;;6109407;23;20376;-85
2023/05/26 12:40:09;;;;;;;9.40;6.43;;;;;;;;;;6112414;23;20880;-87
2023/05/26 12:42:35;;;;;;;9.37;6.93;;;;;;;;;;6109034;23;20464;-86
2023/05/26 12:45:02;;;;;;;7.50;6.63;;;;;;;;;;6104602;23;20424;-85
2023/05/26 12:47:28;;;;;;;9.60;6.77;;;;;;;;;;6107256;23;20389;-85
2023/05/26 12:49:54;;;;;;;7.93;5.70;;;;;;;;;;6113041;23;20412;-85
2023/05/26 12:52:20;;;;;;;9.43;6.37;;;;;;;;;;6109566;23;20381;-87
2023/05/26 12:54:46;;;;;;;8.93;6.57;;;;;;;;;;6115653;23;20376;-88
2023/05/26 12:57:12;;;;;;;7.40;5.77;;;;;;;;;;6133167;23;20983;-88
2023/05/26 12:59:40;;;;;;;7.80;5.97;;;;;;;;;;6109243;23;20708;-86
2023/05/26 13:02:06;;;;;;;8.93;6.40;;;;;;;;;;6132917;23;20412;-85
2023/05/26 13:04:32;;;;;;;11.40;6.60;;;;;;;;;;6134113;23;20413;-85
2023/05/26 13:06:58;;;;;;;6.80;5.80;;;;;;;;;;6109243;23;20775;-84
2023/05/26 13:09:24;;;;;;;8.10;6.00;;;;;;;;;;6136612;23;20364;-86
2023/05/26 13:11:51;;;;;;;7.67;6.60;;;;;;;;;;6108983;23;20381;-84
2023/05/26 13:14:18;;;;;;;6.63;5.73;;;;;;;;;;6112695;23;20385;-87
2023/05/26 13:16:44;;;;;;;6.70;5.67;;;;;;;;;;6107821;23;20408;-85
2023/05/26 13:19:10;;;;;;;7.87;6.37;;;;;;;;;;6109643;23;20446;-84
2023/05/26 13:21:36;;;;;;;7.97;6.70;;;;;;;;;;6131710;23;20377;-85
2023/05/26 13:24:05;;;;;;;9.53;6.07;;;;;;;;;;6107359;23;20523;-85
2023/05/26 13:26:31;;;;;;;7.30;5.90;;;;;;;;;;6110228;23;20385;-85
2023/05/26 13:28:58;;;;;;;6.20;5.43;;;;;;;;;;6110379;23;20393;-85
2023/05/26 13:31:24;;;;;;;18.67;6.50;;;;;;;;;;6112248;23;20698;-85
2023/05/26 13:33:50;;;;;;;8.87;6.00;;;;;;;;;;6109671;23;20444;-85
2023/05/26 13:36:16;;;;;;;7.27;6.63;;;;;;;;;;6108370;23;20149;-85
2023/05/26 13:38:42;;;;;;;8.40;6.77;;;;;;;;;;6109065;23;20395;-86
2023/05/26 13:41:11;;;;;;;10.30;6.73;;;;;;;;;;6132618;23;20369;-85
2023/05/26 13:43:37;;;;;;;9.00;5.43;;;;;;;;;;6110192;23;20425;-87
2023/05/26 13:46:03;;;;;;;8.57;6.87;;;;;;;;;;6105662;23;20385;-86
2023/05/26 13:48:29;;;;;;;10.37;5.80;;;;;;;;;;6107885;23;20879;-85
2023/05/26 13:50:55;;;;;;;5.27;4.50;;;;;;;;;;6106826;23;20381;-87
2023/05/26 13:53:21;;;;;;;7.53;6.40;;;;;;;;;;6108185;23;20395;-86
2023/05/26 13:55:48;;;;;;;7.30;5.43;;;;;;;;;;6131856;23;20376;-87
2023/05/26 13:58:14;;;;;;;6.90;6.20;;;;;;;;;;6106909;23;20420;-86
2023/05/26 14:00:41;;;;;;;10.53;6.00;;;;;;;;;;6107181;23;20385;-87
2023/05/26 14:03:07;;;;;;;7.07;5.50;;;;;;;;;;6106231;23;20991;-87
2023/05/26 14:05:33;;;;;;;5.93;5.33;;;;;;;;;;6130239;23;20373;-86
2023/05/26 14:08:01;;;;;;;8.23;6.27;;;;;;;;;;6106992;23;20926;-86
2023/05/26 14:10:30;;;;;;;8.20;6.07;;;;;;;;;;6106701;23;20381;-86
2023/05/26 14:12:56;;;;;;;8.30;5.83;;;;;;;;;;6108889;23;20388;-85
2023/05/26 14:15:22;;;;;;;9.20;6.70;;;;;;;;;;6107340;23;20377;-87
2023/05/26 14:17:48;;;;;;;6.77;6.07;;;;;;;;;;6110590;23;20369;-86
2023/05/26 14:20:14;;;;;;;9.13;5.30;;;;;;;;;;6131298;23;20365;-87
2023/05/26 14:22:40;;;;;;;8.07;6.40;;;;;;;;;;6102970;23;20804;-86
2023/05/26 14:25:06;;;;;;;6.77;6.07;;;;;;;;;;6105956;23;20425;-86
2023/05/26 14:27:33;;;;;;;7.30;5.90;;;;;;;;;;6131429;23;20400;-87
2023/05/26 14:29:59;;;;;;;6.93;5.57;;;;;;;;;;6106368;23;20377;-87
2023/05/26 14:32:26;;;;;;;7.07;5.37;;;;;;;;;;6132032;23;20396;-87
2023/05/26 14:34:52;;;;;;;10.83;6.20;;;;;;;;;;6128915;23;20785;-89
2023/05/26 14:37:18;;;;;;;6.77;5.40;;;;;;;;;;6130334;23;20472;-86
2023/05/26 14:39:44;;;;;;;9.97;5.53;;;;;;;;;;6103745;23;20396;-85